< < Back
Terminal Aerodrome Forecast


Current Version              Previous Versions:   1  2  3  4  5  6  7  8  9  

Terminal Aerodrome Forecast

992
FTUS44 KBMX 261123
TAFMGM
TAF
KMGM 261123Z 2612/2712 10004KT P6SM SKC
     FM261500 13004KT P6SM FEW050
     FM261900 15009KT P6SM VCTS SCT050CB
     FM270200 13005KT P6SM SCT060 BKN250=

Latest METAR

739
SAUS80 KWBC 261400 RRA
MTRMGM
METAR KMGM 261353Z 09008KT 10SM CLR 29/23 A3005 RMK AO2 SLP170
T02890233


USA.gov is the U.S. government's official web portal to all federal, state and local government web resources and services.